Dawn, Texas
Current Conditions -  °F | °C
As of 6:55 PM on Friday 24 Oct 2014 (Local Time) from KHRX Reporting Station
Clear Clear  
Wind Chill: 78°   Ceiling: Unl
Heat Index: 78°   Visibility: 7mi
Dew Point: 43°   Wind: 8mph
Humidity: 29%   Direction: 170°S
Pressure: 30.12"   Gusts: NA
Location:  34.91°N, 102.2°W
Report Text: KHRX 242355Z AUTO 17007KT 7SM CLR 25/06 A3012 RMK AO2 T02530060 10301 20252
Loading
Personal Weather Stations






























Interactive Weather Map
Tropical Storm Tracking
New forecast layout! Learn more

10-Day Weather Forecast

Advertisements
Track Severe Weather on mobile